N1764T KHFD-KACK
Flight info
| Callsign | N1764T |
|---|---|
| Flight time | 1h 23m |
| Altitude | 5000 |
| Route | GON V374 MVY V146 ACK |
| Aircraft | P28A/L-SDFG/C |
Departure
| Time | 2026-04-29 00:55 |
|---|---|
| Airport | Hartford Brainard Airport (KHFD) |
Arrival
| Time | 2026-04-29 02:19 |
|---|---|
| Airport | Nantucket Memorial Airport (KACK) |
| Time | Latitude | Longitude | Altitude | Speed | Heading |
|---|---|---|---|---|---|
| 2026-04-29 00:32 | 41.74277 | -72.64940 | 22 ft | 0 kts | 276° |
| 2026-04-29 00:45 | 41.74277 | -72.64941 | 22 ft | 0 kts | 276° |
| 2026-04-29 00:48 | 41.74278 | -72.64945 | 22 ft | 3 kts | 283° |
| 2026-04-29 00:48 | 41.74318 | -72.64948 | 23 ft | 9 kts | 38° |
| 2026-04-29 00:48 | 41.74340 | -72.64871 | 24 ft | 8 kts | 73° |
| 2026-04-29 00:49 | 41.74391 | -72.64861 | 25 ft | 7 kts | 353° |
| 2026-04-29 00:49 | 41.74398 | -72.64833 | 25 ft | 0 kts | 213° |
| 2026-04-29 00:52 | 41.74394 | -72.64835 | 25 ft | 3 kts | 197° |
| 2026-04-29 00:52 | 41.74367 | -72.64842 | 25 ft | 2 kts | 130° |
| 2026-04-29 00:53 | 41.74366 | -72.64839 | 25 ft | 0 kts | 100° |
| 2026-04-29 00:54 | 41.74362 | -72.64813 | 25 ft | 9 kts | 101° |
| 2026-04-29 00:54 | 41.74328 | -72.64736 | 25 ft | 11 kts | 171° |
| 2026-04-29 00:54 | 41.74187 | -72.64767 | 26 ft | 45 kts | 188° |
| 2026-04-29 00:55 | 41.73741 | -72.64872 | 143 ft | 72 kts | 191° |
| 2026-04-29 00:55 | 41.73283 | -72.65051 | 419 ft | 71 kts | 195° |
| 2026-04-29 00:55 | 41.72811 | -72.65251 | 677 ft | 72 kts | 194° |
| 2026-04-29 00:55 | 41.72319 | -72.65376 | 934 ft | 71 kts | 184° |
| 2026-04-29 00:56 | 41.71835 | -72.65435 | 1166 ft | 72 kts | 182° |
| 2026-04-29 00:56 | 41.71344 | -72.65490 | 1426 ft | 71 kts | 183° |
| 2026-04-29 00:56 | 41.70845 | -72.65552 | 1665 ft | 71 kts | 183° |
| 2026-04-29 00:56 | 41.70337 | -72.65550 | 1879 ft | 74 kts | 170° |
| 2026-04-29 00:57 | 41.69855 | -72.65328 | 2107 ft | 75 kts | 150° |
| 2026-04-29 00:57 | 41.69429 | -72.64951 | 2360 ft | 73 kts | 136° |
| 2026-04-29 00:57 | 41.69051 | -72.64474 | 2572 ft | 75 kts | 130° |
| 2026-04-29 00:57 | 41.68680 | -72.63960 | 2779 ft | 78 kts | 128° |
| 2026-04-29 00:58 | 41.68427 | -72.63617 | 2921 ft | 79 kts | 130° |
| 2026-04-29 00:58 | 41.68032 | -72.63095 | 3131 ft | 80 kts | 127° |
| 2026-04-29 00:58 | 41.67652 | -72.62553 | 3356 ft | 79 kts | 123° |
| 2026-04-29 00:58 | 41.67297 | -72.61985 | 3558 ft | 79 kts | 121° |
| 2026-04-29 00:59 | 41.66955 | -72.61401 | 3766 ft | 80 kts | 121° |
| 2026-04-29 00:59 | 41.66616 | -72.60811 | 3963 ft | 80 kts | 120° |
| 2026-04-29 00:59 | 41.66266 | -72.60220 | 4173 ft | 80 kts | 123° |
| 2026-04-29 00:59 | 41.65901 | -72.59639 | 4349 ft | 83 kts | 124° |
| 2026-04-29 01:00 | 41.65538 | -72.59052 | 4564 ft | 82 kts | 124° |
| 2026-04-29 01:00 | 41.65175 | -72.58457 | 4740 ft | 83 kts | 122° |
| 2026-04-29 01:00 | 41.64801 | -72.57867 | 4946 ft | 83 kts | 125° |
| 2026-04-29 01:00 | 41.64409 | -72.57230 | 5010 ft | 94 kts | 123° |
| 2026-04-29 01:01 | 41.63971 | -72.56520 | 5005 ft | 104 kts | 125° |
| 2026-04-29 01:01 | 41.63493 | -72.55771 | 5033 ft | 105 kts | 126° |
| 2026-04-29 01:01 | 41.62995 | -72.55048 | 5025 ft | 107 kts | 128° |
| 2026-04-29 01:01 | 41.62488 | -72.54332 | 5036 ft | 107 kts | 129° |
| 2026-04-29 01:02 | 41.61956 | -72.53607 | 5014 ft | 110 kts | 130° |
| 2026-04-29 01:02 | 41.61429 | -72.52886 | 5039 ft | 108 kts | 129° |
| 2026-04-29 01:02 | 41.60908 | -72.52150 | 5051 ft | 108 kts | 128° |
| 2026-04-29 01:02 | 41.60409 | -72.51415 | 5071 ft | 109 kts | 128° |
| 2026-04-29 01:03 | 41.59889 | -72.50655 | 5054 ft | 111 kts | 127° |
| 2026-04-29 01:03 | 41.59356 | -72.49914 | 5063 ft | 111 kts | 129° |
| 2026-04-29 01:03 | 41.58828 | -72.49162 | 5049 ft | 111 kts | 127° |
| 2026-04-29 01:03 | 41.58311 | -72.48406 | 5051 ft | 110 kts | 127° |
| 2026-04-29 01:04 | 41.57776 | -72.47658 | 5033 ft | 112 kts | 129° |
| 2026-04-29 01:04 | 41.57243 | -72.46916 | 5038 ft | 111 kts | 128° |
| 2026-04-29 01:04 | 41.56709 | -72.46169 | 5034 ft | 111 kts | 129° |
| 2026-04-29 01:04 | 41.56222 | -72.45388 | 5032 ft | 110 kts | 122° |
| 2026-04-29 01:05 | 41.55755 | -72.44572 | 5039 ft | 110 kts | 122° |
| 2026-04-29 01:05 | 41.55288 | -72.43774 | 5047 ft | 110 kts | 123° |
| 2026-04-29 01:05 | 41.54816 | -72.42972 | 5049 ft | 109 kts | 123° |
| 2026-04-29 01:05 | 41.54339 | -72.42181 | 5050 ft | 111 kts | 125° |
| 2026-04-29 01:06 | 41.53842 | -72.41415 | 5049 ft | 110 kts | 126° |
| 2026-04-29 01:06 | 41.53350 | -72.40634 | 5055 ft | 110 kts | 124° |
| 2026-04-29 01:06 | 41.52855 | -72.39848 | 5059 ft | 111 kts | 125° |
| 2026-04-29 01:06 | 41.52366 | -72.39061 | 5080 ft | 110 kts | 123° |
| 2026-04-29 01:07 | 41.51909 | -72.38244 | 5074 ft | 111 kts | 121° |
| 2026-04-29 01:07 | 41.51461 | -72.37404 | 5053 ft | 111 kts | 121° |
| 2026-04-29 01:07 | 41.51006 | -72.36568 | 5059 ft | 110 kts | 120° |
| 2026-04-29 01:07 | 41.50552 | -72.35737 | 5034 ft | 112 kts | 121° |
| 2026-04-29 01:08 | 41.50090 | -72.34918 | 5050 ft | 109 kts | 122° |
| 2026-04-29 01:08 | 41.49646 | -72.34087 | 5042 ft | 109 kts | 119° |
| 2026-04-29 01:08 | 41.49200 | -72.33272 | 5046 ft | 110 kts | 122° |
| 2026-04-29 01:08 | 41.48722 | -72.32466 | 5060 ft | 110 kts | 124° |
| 2026-04-29 01:09 | 41.48235 | -72.31694 | 5041 ft | 112 kts | 124° |
| 2026-04-29 01:09 | 41.47742 | -72.30884 | 5037 ft | 112 kts | 123° |
| 2026-04-29 01:09 | 41.47257 | -72.30092 | 5082 ft | 109 kts | 123° |
| 2026-04-29 01:09 | 41.46787 | -72.29276 | 5052 ft | 112 kts | 122° |
| 2026-04-29 01:10 | 41.46314 | -72.28467 | 5076 ft | 110 kts | 123° |
| 2026-04-29 01:10 | 41.45815 | -72.27664 | 5044 ft | 113 kts | 126° |
| 2026-04-29 01:10 | 41.45282 | -72.26901 | 5071 ft | 112 kts | 128° |
| 2026-04-29 01:10 | 41.44764 | -72.26121 | 5045 ft | 113 kts | 126° |
| 2026-04-29 01:11 | 41.44227 | -72.25359 | 5057 ft | 112 kts | 129° |
| 2026-04-29 01:11 | 41.43672 | -72.24621 | 5048 ft | 113 kts | 129° |
| 2026-04-29 01:11 | 41.43116 | -72.23877 | 5032 ft | 114 kts | 130° |
| 2026-04-29 01:11 | 41.42561 | -72.23134 | 5031 ft | 113 kts | 129° |
| 2026-04-29 01:12 | 41.41986 | -72.22410 | 5031 ft | 114 kts | 132° |
| 2026-04-29 01:12 | 41.41394 | -72.21716 | 5031 ft | 114 kts | 134° |
| 2026-04-29 01:12 | 41.40790 | -72.21033 | 5029 ft | 114 kts | 134° |
| 2026-04-29 01:12 | 41.40223 | -72.20310 | 5036 ft | 112 kts | 130° |
| 2026-04-29 01:13 | 41.39649 | -72.19589 | 5017 ft | 114 kts | 133° |
| 2026-04-29 01:13 | 41.39083 | -72.18864 | 5021 ft | 112 kts | 128° |
| 2026-04-29 01:13 | 41.38607 | -72.18038 | 5006 ft | 112 kts | 118° |
| 2026-04-29 01:13 | 41.38214 | -72.17163 | 5008 ft | 110 kts | 114° |
| 2026-04-29 01:14 | 41.37821 | -72.16280 | 4999 ft | 110 kts | 115° |
| 2026-04-29 01:14 | 41.37441 | -72.15398 | 4993 ft | 110 kts | 114° |
| 2026-04-29 01:14 | 41.37076 | -72.14530 | 5021 ft | 107 kts | 114° |
| 2026-04-29 01:14 | 41.36702 | -72.13678 | 5038 ft | 108 kts | 115° |
| 2026-04-29 01:15 | 41.36323 | -72.12818 | 5053 ft | 107 kts | 116° |
| 2026-04-29 01:15 | 41.35945 | -72.11959 | 5059 ft | 108 kts | 113° |
| 2026-04-29 01:15 | 41.35584 | -72.11081 | 5074 ft | 108 kts | 115° |
| 2026-04-29 01:15 | 41.35179 | -72.10224 | 5020 ft | 114 kts | 117° |
| 2026-04-29 01:16 | 41.34767 | -72.09342 | 5028 ft | 111 kts | 116° |
| 2026-04-29 01:16 | 41.34382 | -72.08474 | 5043 ft | 109 kts | 111° |
| 2026-04-29 01:16 | 41.34171 | -72.07516 | 5035 ft | 105 kts | 92° |
| 2026-04-29 01:16 | 41.34151 | -72.06543 | 5013 ft | 107 kts | 85° |
| 2026-04-29 01:17 | 41.34177 | -72.05587 | 5077 ft | 101 kts | 82° |
| 2026-04-29 01:17 | 41.34225 | -72.04631 | 5043 ft | 105 kts | 83° |
| 2026-04-29 01:17 | 41.34243 | -72.03669 | 5045 ft | 105 kts | 85° |
| 2026-04-29 01:17 | 41.34225 | -72.02703 | 5072 ft | 103 kts | 88° |
| 2026-04-29 01:18 | 41.34192 | -72.01750 | 5049 ft | 106 kts | 90° |
| 2026-04-29 01:18 | 41.34020 | -71.99818 | 5078 ft | 106 kts | 92° |
| 2026-04-29 01:18 | 41.33917 | -71.98848 | 5086 ft | 105 kts | 94° |
| 2026-04-29 01:19 | 41.33779 | -71.97886 | 5076 ft | 105 kts | 95° |
| 2026-04-29 01:19 | 41.33716 | -71.96931 | 5071 ft | 103 kts | 84° |
| 2026-04-29 01:19 | 41.33759 | -71.95990 | 5086 ft | 101 kts | 79° |
| 2026-04-29 01:19 | 41.33842 | -71.95070 | 5112 ft | 99 kts | 75° |
| 2026-04-29 01:20 | 41.33955 | -71.94161 | 5100 ft | 101 kts | 78° |
| 2026-04-29 01:20 | 41.34028 | -71.93237 | 5101 ft | 101 kts | 80° |
| 2026-04-29 01:20 | 41.34078 | -71.92294 | 5083 ft | 103 kts | 82° |
| 2026-04-29 01:20 | 41.34105 | -71.91338 | 5078 ft | 105 kts | 83° |
| 2026-04-29 01:21 | 41.34108 | -71.90365 | 5061 ft | 104 kts | 85° |
| 2026-04-29 01:21 | 41.34130 | -71.89427 | 5057 ft | 103 kts | 83° |
| 2026-04-29 01:21 | 41.34196 | -71.88486 | 5056 ft | 101 kts | 78° |
| 2026-04-29 01:21 | 41.34238 | -71.87538 | 5038 ft | 103 kts | 83° |
| 2026-04-29 01:22 | 41.34295 | -71.86599 | 5041 ft | 102 kts | 79° |
| 2026-04-29 01:22 | 41.34361 | -71.85656 | 5029 ft | 102 kts | 81° |
| 2026-04-29 01:22 | 41.34401 | -71.84713 | 5032 ft | 103 kts | 82° |
| 2026-04-29 01:22 | 41.34426 | -71.83767 | 5038 ft | 102 kts | 82° |
| 2026-04-29 01:23 | 41.34518 | -71.82834 | 5036 ft | 101 kts | 77° |
| 2026-04-29 01:23 | 41.34584 | -71.81892 | 5019 ft | 103 kts | 81° |
| 2026-04-29 01:23 | 41.34634 | -71.80947 | 5022 ft | 101 kts | 78° |
| 2026-04-29 01:23 | 41.34714 | -71.80013 | 4996 ft | 102 kts | 79° |
| 2026-04-29 01:24 | 41.34770 | -71.79071 | 4993 ft | 102 kts | 81° |
| 2026-04-29 01:24 | 41.34820 | -71.78129 | 4982 ft | 102 kts | 81° |
| 2026-04-29 01:24 | 41.34881 | -71.77191 | 4994 ft | 101 kts | 79° |
| 2026-04-29 01:24 | 41.34948 | -71.76264 | 4975 ft | 102 kts | 80° |
| 2026-04-29 01:25 | 41.35006 | -71.75341 | 5034 ft | 98 kts | 80° |
| 2026-04-29 01:25 | 41.35075 | -71.74425 | 5006 ft | 101 kts | 79° |
| 2026-04-29 01:25 | 41.35171 | -71.73522 | 5058 ft | 97 kts | 76° |
| 2026-04-29 01:25 | 41.35272 | -71.72614 | 5045 ft | 100 kts | 77° |
| 2026-04-29 01:26 | 41.35336 | -71.71716 | 5076 ft | 99 kts | 83° |
| 2026-04-29 01:26 | 41.35352 | -71.70780 | 5054 ft | 101 kts | 82° |
| 2026-04-29 01:26 | 41.35369 | -71.69854 | 5074 ft | 101 kts | 84° |
| 2026-04-29 01:26 | 41.35370 | -71.68927 | 5074 ft | 101 kts | 85° |
| 2026-04-29 01:27 | 41.35365 | -71.67983 | 5063 ft | 102 kts | 84° |
| 2026-04-29 01:27 | 41.35397 | -71.67052 | 5101 ft | 99 kts | 80° |
| 2026-04-29 01:27 | 41.35460 | -71.66128 | 5077 ft | 102 kts | 78° |
| 2026-04-29 01:27 | 41.35545 | -71.65177 | 5024 ft | 106 kts | 79° |
| 2026-04-29 01:28 | 41.35621 | -71.64179 | 4950 ft | 107 kts | 79° |
| 2026-04-29 01:28 | 41.35677 | -71.63210 | 4955 ft | 103 kts | 79° |
| 2026-04-29 01:28 | 41.35740 | -71.62301 | 5025 ft | 97 kts | 79° |
| 2026-04-29 01:28 | 41.35806 | -71.61379 | 4990 ft | 101 kts | 79° |
| 2026-04-29 01:29 | 41.35860 | -71.60459 | 5000 ft | 101 kts | 79° |
| 2026-04-29 01:29 | 41.35917 | -71.59516 | 4975 ft | 102 kts | 80° |
| 2026-04-29 01:29 | 41.35971 | -71.58585 | 4980 ft | 101 kts | 80° |
| 2026-04-29 01:29 | 41.36026 | -71.57653 | 4968 ft | 101 kts | 81° |
| 2026-04-29 01:30 | 41.36070 | -71.56718 | 4961 ft | 101 kts | 81° |
| 2026-04-29 01:30 | 41.36120 | -71.55796 | 4961 ft | 100 kts | 80° |
| 2026-04-29 01:30 | 41.36170 | -71.54887 | 4984 ft | 99 kts | 81° |
| 2026-04-29 01:30 | 41.36198 | -71.53964 | 4979 ft | 100 kts | 84° |
| 2026-04-29 01:31 | 41.36197 | -71.53040 | 4998 ft | 99 kts | 84° |
| 2026-04-29 01:31 | 41.36207 | -71.52113 | 4990 ft | 100 kts | 84° |
| 2026-04-29 01:31 | 41.36218 | -71.51196 | 5013 ft | 99 kts | 83° |
| 2026-04-29 01:31 | 41.36231 | -71.50277 | 5019 ft | 99 kts | 82° |
| 2026-04-29 01:32 | 41.36249 | -71.49367 | 5029 ft | 99 kts | 82° |
| 2026-04-29 01:32 | 41.36272 | -71.48451 | 5039 ft | 98 kts | 82° |
| 2026-04-29 01:32 | 41.36301 | -71.47538 | 5027 ft | 101 kts | 82° |
| 2026-04-29 01:32 | 41.36308 | -71.46615 | 5052 ft | 98 kts | 83° |
| 2026-04-29 01:33 | 41.36330 | -71.45696 | 5037 ft | 101 kts | 83° |
| 2026-04-29 01:33 | 41.36336 | -71.44772 | 5067 ft | 98 kts | 84° |
| 2026-04-29 01:33 | 41.36367 | -71.43854 | 5050 ft | 100 kts | 80° |
| 2026-04-29 01:33 | 41.36426 | -71.42940 | 5082 ft | 98 kts | 80° |
| 2026-04-29 01:34 | 41.36467 | -71.42023 | 5075 ft | 100 kts | 82° |
| 2026-04-29 01:34 | 41.36493 | -71.41093 | 5076 ft | 101 kts | 83° |
| 2026-04-29 01:34 | 41.36534 | -71.40157 | 5056 ft | 102 kts | 81° |
| 2026-04-29 01:34 | 41.36566 | -71.39218 | 5055 ft | 101 kts | 82° |
| 2026-04-29 01:35 | 41.36602 | -71.38292 | 5053 ft | 102 kts | 82° |
| 2026-04-29 01:35 | 41.36648 | -71.37357 | 5038 ft | 102 kts | 80° |
| 2026-04-29 01:35 | 41.36709 | -71.36422 | 5045 ft | 101 kts | 79° |
| 2026-04-29 01:35 | 41.36783 | -71.35498 | 5050 ft | 100 kts | 78° |
| 2026-04-29 01:36 | 41.36857 | -71.34572 | 5028 ft | 101 kts | 78° |
| 2026-04-29 01:36 | 41.36954 | -71.33662 | 5053 ft | 98 kts | 75° |
| 2026-04-29 01:36 | 41.37080 | -71.32758 | 5025 ft | 100 kts | 76° |
| 2026-04-29 01:36 | 41.37160 | -71.31834 | 5022 ft | 100 kts | 80° |
| 2026-04-29 01:37 | 41.37219 | -71.30916 | 5023 ft | 99 kts | 76° |
| 2026-04-29 01:37 | 41.37332 | -71.30010 | 5034 ft | 98 kts | 76° |
| 2026-04-29 01:37 | 41.37425 | -71.29105 | 5011 ft | 101 kts | 77° |
| 2026-04-29 01:37 | 41.37498 | -71.28183 | 5035 ft | 98 kts | 79° |
| 2026-04-29 01:38 | 41.37564 | -71.27265 | 4989 ft | 102 kts | 79° |
| 2026-04-29 01:38 | 41.37624 | -71.26332 | 4997 ft | 100 kts | 79° |
| 2026-04-29 01:38 | 41.37658 | -71.25408 | 4990 ft | 100 kts | 82° |
| 2026-04-29 01:38 | 41.37673 | -71.24484 | 4987 ft | 99 kts | 81° |
| 2026-04-29 01:39 | 41.37701 | -71.23559 | 4981 ft | 100 kts | 82° |
| 2026-04-29 01:39 | 41.37705 | -71.22636 | 4988 ft | 100 kts | 85° |
| 2026-04-29 01:39 | 41.37671 | -71.21703 | 4982 ft | 101 kts | 86° |
| 2026-04-29 01:39 | 41.37634 | -71.20779 | 4980 ft | 101 kts | 86° |
| 2026-04-29 01:40 | 41.37570 | -71.19847 | 4986 ft | 101 kts | 89° |
| 2026-04-29 01:40 | 41.37441 | -71.18913 | 4962 ft | 104 kts | 95° |
| 2026-04-29 01:40 | 41.37273 | -71.17989 | 4978 ft | 103 kts | 96° |
| 2026-04-29 01:40 | 41.37091 | -71.17055 | 4961 ft | 103 kts | 97° |
| 2026-04-29 01:41 | 41.36913 | -71.16132 | 4956 ft | 103 kts | 97° |
| 2026-04-29 01:41 | 41.36723 | -71.15207 | 4944 ft | 104 kts | 99° |
| 2026-04-29 01:41 | 41.36549 | -71.14607 | 4938 ft | 106 kts | 106° |
| 2026-04-29 01:41 | 41.36236 | -71.13717 | 4941 ft | 105 kts | 106° |
| 2026-04-29 01:42 | 41.35965 | -71.12818 | 4948 ft | 104 kts | 102° |
| 2026-04-29 01:42 | 41.35714 | -71.11917 | 4876 ft | 106 kts | 102° |
| 2026-04-29 01:42 | 41.35442 | -71.11012 | 4835 ft | 104 kts | 105° |
| 2026-04-29 01:42 | 41.35011 | -71.09854 | 4742 ft | 106 kts | 109° |
| 2026-04-29 01:43 | 41.34806 | -71.09263 | 4713 ft | 103 kts | 103° |
| 2026-04-29 01:43 | 41.34546 | -71.08373 | 4639 ft | 103 kts | 102° |
| 2026-04-29 01:43 | 41.34319 | -71.07489 | 4597 ft | 100 kts | 98° |
| 2026-04-29 01:43 | 41.34217 | -71.06586 | 4524 ft | 100 kts | 90° |
| 2026-04-29 01:44 | 41.34024 | -71.05680 | 4464 ft | 100 kts | 98° |
| 2026-04-29 01:44 | 41.33857 | -71.04787 | 4407 ft | 100 kts | 95° |
| 2026-04-29 01:44 | 41.33708 | -71.03883 | 4357 ft | 98 kts | 91° |
| 2026-04-29 01:44 | 41.33618 | -71.02983 | 4293 ft | 99 kts | 89° |
| 2026-04-29 01:45 | 41.33527 | -71.02088 | 4257 ft | 97 kts | 91° |
| 2026-04-29 01:45 | 41.33414 | -71.01191 | 4184 ft | 99 kts | 93° |
| 2026-04-29 01:45 | 41.33281 | -71.00298 | 4148 ft | 97 kts | 92° |
| 2026-04-29 01:45 | 41.33141 | -70.99413 | 4077 ft | 100 kts | 97° |
| 2026-04-29 01:46 | 41.32938 | -70.98536 | 4049 ft | 98 kts | 99° |
| 2026-04-29 01:46 | 41.32707 | -70.97669 | 3987 ft | 99 kts | 101° |
| 2026-04-29 01:46 | 41.32468 | -70.96824 | 3939 ft | 98 kts | 100° |
| 2026-04-29 01:46 | 41.32312 | -70.95946 | 3847 ft | 97 kts | 92° |
| 2026-04-29 01:47 | 41.32192 | -70.95072 | 3774 ft | 97 kts | 94° |
| 2026-04-29 01:47 | 41.32042 | -70.94196 | 3696 ft | 97 kts | 95° |
| 2026-04-29 01:47 | 41.31887 | -70.93324 | 3625 ft | 97 kts | 95° |
| 2026-04-29 01:47 | 41.31726 | -70.92459 | 3563 ft | 96 kts | 95° |
| 2026-04-29 01:48 | 41.31578 | -70.91596 | 3481 ft | 96 kts | 93° |
| 2026-04-29 01:48 | 41.31453 | -70.90728 | 3397 ft | 96 kts | 95° |
| 2026-04-29 01:48 | 41.31229 | -70.89876 | 3316 ft | 98 kts | 104° |
| 2026-04-29 01:48 | 41.30967 | -70.89043 | 3242 ft | 97 kts | 101° |
| 2026-04-29 01:49 | 41.30769 | -70.88203 | 3154 ft | 96 kts | 97° |
| 2026-04-29 01:49 | 41.30580 | -70.87348 | 3088 ft | 95 kts | 99° |
| 2026-04-29 01:49 | 41.30375 | -70.86533 | 3022 ft | 93 kts | 96° |
| 2026-04-29 01:49 | 41.30207 | -70.85702 | 2944 ft | 94 kts | 97° |
| 2026-04-29 01:50 | 41.30053 | -70.84864 | 2885 ft | 91 kts | 89° |
| 2026-04-29 01:50 | 41.30087 | -70.84027 | 2757 ft | 95 kts | 83° |
| 2026-04-29 01:50 | 41.29955 | -70.83148 | 2713 ft | 95 kts | 97° |
| 2026-04-29 01:50 | 41.29781 | -70.82297 | 2625 ft | 100 kts | 100° |
| 2026-04-29 01:51 | 41.29511 | -70.81438 | 2632 ft | 97 kts | 104° |
| 2026-04-29 01:51 | 41.29322 | -70.80582 | 2632 ft | 97 kts | 95° |
| 2026-04-29 01:51 | 41.29168 | -70.79710 | 2625 ft | 98 kts | 97° |
| 2026-04-29 01:51 | 41.28990 | -70.78841 | 2624 ft | 97 kts | 95° |
| 2026-04-29 01:52 | 41.28832 | -70.77969 | 2624 ft | 97 kts | 98° |
| 2026-04-29 01:52 | 41.28699 | -70.77113 | 2593 ft | 95 kts | 89° |
| 2026-04-29 01:52 | 41.28611 | -70.76236 | 2564 ft | 96 kts | 94° |
| 2026-04-29 01:52 | 41.28401 | -70.75376 | 2512 ft | 99 kts | 101° |
| 2026-04-29 01:53 | 41.28203 | -70.74513 | 2502 ft | 97 kts | 98° |
| 2026-04-29 01:53 | 41.28015 | -70.73641 | 2448 ft | 100 kts | 97° |
| 2026-04-29 01:53 | 41.27840 | -70.72760 | 2433 ft | 98 kts | 97° |
| 2026-04-29 01:53 | 41.27644 | -70.71879 | 2415 ft | 100 kts | 102° |
| 2026-04-29 01:54 | 41.27400 | -70.71014 | 2416 ft | 99 kts | 100° |
| 2026-04-29 01:54 | 41.27211 | -70.70141 | 2410 ft | 99 kts | 97° |
| 2026-04-29 01:54 | 41.27043 | -70.69256 | 2414 ft | 98 kts | 96° |
| 2026-04-29 01:54 | 41.26902 | -70.68383 | 2414 ft | 96 kts | 93° |
| 2026-04-29 01:55 | 41.26773 | -70.67501 | 2385 ft | 99 kts | 96° |
| 2026-04-29 01:55 | 41.26573 | -70.66627 | 2399 ft | 98 kts | 99° |
| 2026-04-29 01:55 | 41.26379 | -70.65754 | 2400 ft | 99 kts | 99° |
| 2026-04-29 01:55 | 41.26172 | -70.64883 | 2401 ft | 99 kts | 100° |
| 2026-04-29 01:56 | 41.25958 | -70.64016 | 2403 ft | 99 kts | 99° |
| 2026-04-29 01:56 | 41.25772 | -70.63144 | 2403 ft | 98 kts | 96° |
| 2026-04-29 01:56 | 41.25634 | -70.62266 | 2406 ft | 96 kts | 93° |
| 2026-04-29 01:56 | 41.25503 | -70.61386 | 2410 ft | 97 kts | 94° |
| 2026-04-29 01:57 | 41.25330 | -70.60521 | 2416 ft | 97 kts | 98° |
| 2026-04-29 01:57 | 41.25080 | -70.59660 | 2394 ft | 101 kts | 105° |
| 2026-04-29 01:57 | 41.24828 | -70.58809 | 2410 ft | 97 kts | 98° |
| 2026-04-29 01:57 | 41.24653 | -70.57934 | 2388 ft | 99 kts | 98° |
| 2026-04-29 01:58 | 41.24474 | -70.57067 | 2396 ft | 97 kts | 97° |
| 2026-04-29 01:58 | 41.24278 | -70.56195 | 2395 ft | 98 kts | 99° |
| 2026-04-29 01:58 | 41.24094 | -70.55328 | 2398 ft | 98 kts | 97° |
| 2026-04-29 01:58 | 41.23930 | -70.54452 | 2408 ft | 97 kts | 95° |
| 2026-04-29 01:59 | 41.23776 | -70.53584 | 2417 ft | 97 kts | 95° |
| 2026-04-29 01:59 | 41.23610 | -70.52729 | 2428 ft | 96 kts | 96° |
| 2026-04-29 01:59 | 41.23500 | -70.51861 | 2421 ft | 96 kts | 92° |
| 2026-04-29 01:59 | 41.23363 | -70.50990 | 2439 ft | 95 kts | 95° |
| 2026-04-29 02:00 | 41.23259 | -70.50121 | 2421 ft | 95 kts | 89° |
| 2026-04-29 02:00 | 41.23172 | -70.49257 | 2410 ft | 96 kts | 92° |
| 2026-04-29 02:00 | 41.23000 | -70.48392 | 2398 ft | 99 kts | 101° |
| 2026-04-29 02:00 | 41.22674 | -70.47583 | 2396 ft | 103 kts | 117° |
| 2026-04-29 02:01 | 41.22207 | -70.46843 | 2396 ft | 103 kts | 121° |
| 2026-04-29 02:01 | 41.21789 | -70.46091 | 2387 ft | 101 kts | 113° |
| 2026-04-29 02:01 | 41.21383 | -70.45314 | 2348 ft | 104 kts | 119° |
| 2026-04-29 02:01 | 41.20885 | -70.44611 | 2324 ft | 106 kts | 126° |
| 2026-04-29 02:02 | 41.20370 | -70.43920 | 2331 ft | 105 kts | 126° |
| 2026-04-29 02:02 | 41.19820 | -70.43262 | 2342 ft | 108 kts | 131° |
| 2026-04-29 02:02 | 41.19231 | -70.42652 | 2376 ft | 106 kts | 130° |
| 2026-04-29 02:02 | 41.18728 | -70.41948 | 2395 ft | 104 kts | 120° |
| 2026-04-29 02:03 | 41.18286 | -70.41214 | 2423 ft | 103 kts | 119° |
| 2026-04-29 02:03 | 41.17821 | -70.40484 | 2429 ft | 102 kts | 120° |
| 2026-04-29 02:03 | 41.17408 | -70.39726 | 2397 ft | 102 kts | 115° |
| 2026-04-29 02:03 | 41.16996 | -70.38946 | 2376 ft | 103 kts | 117° |
| 2026-04-29 02:04 | 41.16531 | -70.38218 | 2364 ft | 105 kts | 124° |
| 2026-04-29 02:04 | 41.15991 | -70.37546 | 2346 ft | 106 kts | 129° |
| 2026-04-29 02:04 | 41.15404 | -70.36925 | 2333 ft | 108 kts | 133° |
| 2026-04-29 02:04 | 41.14863 | -70.36266 | 2344 ft | 103 kts | 120° |
| 2026-04-29 02:05 | 41.14553 | -70.35442 | 2329 ft | 97 kts | 99° |
| 2026-04-29 02:05 | 41.14276 | -70.34603 | 2298 ft | 104 kts | 114° |
| 2026-04-29 02:05 | 41.13784 | -70.33877 | 2359 ft | 103 kts | 127° |
| 2026-04-29 02:05 | 41.13273 | -70.33202 | 2291 ft | 107 kts | 121° |
| 2026-04-29 02:06 | 41.12892 | -70.32415 | 2364 ft | 98 kts | 110° |
| 2026-04-29 02:06 | 41.12552 | -70.31628 | 2332 ft | 101 kts | 110° |
| 2026-04-29 02:06 | 41.12124 | -70.30856 | 2350 ft | 105 kts | 123° |
| 2026-04-29 02:06 | 41.11576 | -70.30210 | 2340 ft | 108 kts | 128° |
| 2026-04-29 02:07 | 41.11125 | -70.29482 | 2382 ft | 100 kts | 112° |
| 2026-04-29 02:07 | 41.10782 | -70.28673 | 2349 ft | 101 kts | 107° |
| 2026-04-29 02:07 | 41.10537 | -70.27831 | 2368 ft | 96 kts | 96° |
| 2026-04-29 02:07 | 41.10471 | -70.26972 | 2347 ft | 91 kts | 76° |
| 2026-04-29 02:08 | 41.10723 | -70.26220 | 2302 ft | 90 kts | 51° |
| 2026-04-29 02:08 | 41.11083 | -70.25556 | 2326 ft | 88 kts | 53° |
| 2026-04-29 02:08 | 41.11404 | -70.24871 | 2345 ft | 88 kts | 56° |
| 2026-04-29 02:08 | 41.11764 | -70.24231 | 2327 ft | 85 kts | 49° |
| 2026-04-29 02:09 | 41.12196 | -70.23670 | 2246 ft | 86 kts | 44° |
| 2026-04-29 02:09 | 41.12627 | -70.23117 | 2171 ft | 88 kts | 42° |
| 2026-04-29 02:09 | 41.13118 | -70.22661 | 2141 ft | 83 kts | 29° |
| 2026-04-29 02:09 | 41.13602 | -70.22264 | 1973 ft | 84 kts | 52° |
| 2026-04-29 02:10 | 41.13862 | -70.21625 | 1909 ft | 80 kts | 50° |
| 2026-04-29 02:10 | 41.14205 | -70.21053 | 1885 ft | 77 kts | 51° |
| 2026-04-29 02:10 | 41.14524 | -70.20482 | 1864 ft | 78 kts | 48° |
| 2026-04-29 02:10 | 41.14873 | -70.19951 | 1858 ft | 76 kts | 47° |
| 2026-04-29 02:11 | 41.15233 | -70.19425 | 1826 ft | 75 kts | 45° |
| 2026-04-29 02:11 | 41.15620 | -70.18959 | 1792 ft | 77 kts | 40° |
| 2026-04-29 02:11 | 41.16049 | -70.18551 | 1771 ft | 76 kts | 31° |
| 2026-04-29 02:11 | 41.16472 | -70.18081 | 1723 ft | 77 kts | 39° |
| 2026-04-29 02:12 | 41.16849 | -70.17603 | 1786 ft | 73 kts | 45° |
| 2026-04-29 02:12 | 41.17201 | -70.17116 | 1802 ft | 75 kts | 44° |
| 2026-04-29 02:12 | 41.17572 | -70.16635 | 1795 ft | 77 kts | 44° |
| 2026-04-29 02:12 | 41.17949 | -70.16132 | 1718 ft | 75 kts | 44° |
| 2026-04-29 02:13 | 41.18284 | -70.15675 | 1677 ft | 68 kts | 46° |
| 2026-04-29 02:13 | 41.18600 | -70.15189 | 1616 ft | 64 kts | 47° |
| 2026-04-29 02:13 | 41.18859 | -70.14736 | 1606 ft | 63 kts | 45° |
| 2026-04-29 02:13 | 41.19206 | -70.14408 | 1589 ft | 63 kts | 32° |
| 2026-04-29 02:14 | 41.19570 | -70.14068 | 1536 ft | 64 kts | 45° |
| 2026-04-29 02:14 | 41.19811 | -70.13625 | 1486 ft | 57 kts | 52° |
| 2026-04-29 02:14 | 41.20086 | -70.13248 | 1358 ft | 57 kts | 30° |
| 2026-04-29 02:14 | 41.20474 | -70.13064 | 1253 ft | 61 kts | 20° |
| 2026-04-29 02:15 | 41.20807 | -70.12758 | 1183 ft | 59 kts | 50° |
| 2026-04-29 02:15 | 41.21020 | -70.12282 | 1109 ft | 61 kts | 55° |
| 2026-04-29 02:15 | 41.21250 | -70.11820 | 1056 ft | 59 kts | 46° |
| 2026-04-29 02:15 | 41.21534 | -70.11434 | 984 ft | 57 kts | 39° |
| 2026-04-29 02:16 | 41.21826 | -70.11089 | 917 ft | 56 kts | 38° |
| 2026-04-29 02:16 | 41.22089 | -70.10732 | 885 ft | 53 kts | 41° |
| 2026-04-29 02:16 | 41.22348 | -70.10373 | 817 ft | 55 kts | 43° |
| 2026-04-29 02:16 | 41.22614 | -70.10001 | 758 ft | 56 kts | 40° |
| 2026-04-29 02:17 | 41.22899 | -70.09648 | 684 ft | 56 kts | 40° |
| 2026-04-29 02:17 | 41.23178 | -70.09289 | 626 ft | 56 kts | 41° |
| 2026-04-29 02:17 | 41.23447 | -70.08914 | 527 ft | 55 kts | 42° |
| 2026-04-29 02:17 | 41.23722 | -70.08569 | 406 ft | 53 kts | 38° |
| 2026-04-29 02:18 | 41.23985 | -70.08190 | 302 ft | 57 kts | 44° |
| 2026-04-29 02:18 | 41.24264 | -70.07844 | 250 ft | 57 kts | 52° |
| 2026-04-29 02:18 | 41.24540 | -70.07469 | 171 ft | 54 kts | 43° |
| 2026-04-29 02:18 | 41.24814 | -70.07099 | 66 ft | 57 kts | 42° |
| 2026-04-29 02:19 | 41.25058 | -70.06764 | 34 ft | 41 kts | 43° |
| 2026-04-29 02:19 | 41.25226 | -70.06550 | 33 ft | 29 kts | 43° |
| 2026-04-29 02:19 | 41.25328 | -70.06416 | 37 ft | 7 kts | 40° |
| 2026-04-29 02:19 | 41.25380 | -70.06411 | 38 ft | 12 kts | 319° |
| 2026-04-29 02:20 | 41.25411 | -70.06451 | 38 ft | 0 kts | 315° |
| 2026-04-29 02:20 | 41.25417 | -70.06459 | 38 ft | 5 kts | 317° |
| 2026-04-29 02:21 | 41.25465 | -70.06439 | 38 ft | 12 kts | 44° |
| 2026-04-29 02:21 | 41.25536 | -70.06343 | 39 ft | 17 kts | 43° |
| 2026-04-29 02:21 | 41.25624 | -70.06227 | 41 ft | 19 kts | 44° |
| 2026-04-29 02:21 | 41.25676 | -70.06160 | 40 ft | 1 kts | 40° |
| 2026-04-29 02:22 | 41.25680 | -70.06163 | 40 ft | 4 kts | 237° |
| 2026-04-29 02:22 | 41.25694 | -70.06207 | 40 ft | 3 kts | 312° |
| 2026-04-29 02:22 | 41.25742 | -70.06198 | 40 ft | 14 kts | 24° |
| 2026-04-29 02:22 | 41.25823 | -70.06264 | 42 ft | 11 kts | 306° |
| 2026-04-29 02:23 | 41.25842 | -70.06323 | 45 ft | 7 kts | 281° |
| 2026-04-29 02:23 | 41.25886 | -70.06375 | 47 ft | 8 kts | 353° |
| 2026-04-29 02:23 | 41.25923 | -70.06330 | 47 ft | 6 kts | 25° |
| 2026-04-29 02:23 | 41.25947 | -70.06334 | 47 ft | 7 kts | 294° |
| 2026-04-29 02:24 | 41.25928 | -70.06341 | 47 ft | 5 kts | 60° |
| 2026-04-29 02:24 | 41.25942 | -70.06334 | 47 ft | 0 kts | 16° |
| 2026-04-29 02:25 | 41.25941 | -70.06334 | 47 ft | 1 kts | 18° |
| 2026-04-29 02:25 | 41.25928 | -70.06340 | 47 ft | 2 kts | 19° |
| 2026-04-29 02:25 | 41.25941 | -70.06335 | 47 ft | 1 kts | 13° |
| 2026-04-29 02:26 | 41.25942 | -70.06335 | 47 ft | 0 kts | 12° |
| 2026-04-29 02:26 | 41.25943 | -70.06335 | 47 ft | 1 kts | 9° |
| 2026-04-29 02:26 | 41.25943 | -70.06334 | 47 ft | 0 kts | 20° |